<?xml version="1.0" encoding="UTF-8" standalone="no" ?>
<gpx xmlns="http://www.topografix.com/GPX/1/1" xmlns:xsi="http://www.w3.org/2001/XMLSchema-instance" xsi:schemaLocation="http://www.topografix.com/GPX/1/1 http://www.topografix.com/GPX/1/1/gpx.xsd" version="1.1" creator="VisuGPX - https://www.visugpx.com">
  <metadata>
    <name>R 008 Biard-Village des champs</name>
  </metadata>
  <trk>
    <name><![CDATA[R 008 Biard-Village des champs]]></name>
    <trkseg>
      <trkpt lat="46.46839" lon="-1.49581">
        <ele>48.2</ele>
      </trkpt>
      <trkpt lat="46.4684" lon="-1.49575">
        <ele>48.2</ele>
      </trkpt>
      <trkpt lat="46.46906" lon="-1.49518">
        <ele>49.4</ele>
      </trkpt>
      <trkpt lat="46.46961" lon="-1.49487">
        <ele>50.3</ele>
      </trkpt>
      <trkpt lat="46.46973" lon="-1.49477">
        <ele>50.2</ele>
      </trkpt>
      <trkpt lat="46.47028" lon="-1.49404">
        <ele>49</ele>
      </trkpt>
      <trkpt lat="46.47023" lon="-1.49398">
        <ele>48.9</ele>
      </trkpt>
      <trkpt lat="46.47022" lon="-1.49397">
        <ele>48.9</ele>
        <time>2010-01-01T00:00:00Z</time>
      </trkpt>
      <trkpt lat="46.47022" lon="-1.49397">
        <ele>48.8</ele>
      </trkpt>
      <trkpt lat="46.47012" lon="-1.49391">
        <ele>47</ele>
        <time>2010-01-01T01:10:11Z</time>
      </trkpt>
      <trkpt lat="46.47001" lon="-1.49393">
        <ele>48</ele>
        <time>2010-01-01T01:10:06Z</time>
      </trkpt>
      <trkpt lat="46.46987" lon="-1.49396">
        <ele>47</ele>
        <time>2010-01-01T01:10:00Z</time>
      </trkpt>
      <trkpt lat="46.46975" lon="-1.49383">
        <ele>46</ele>
        <time>2010-01-01T01:09:55Z</time>
      </trkpt>
      <trkpt lat="46.46965" lon="-1.49364">
        <ele>46</ele>
        <time>2010-01-01T01:09:48Z</time>
      </trkpt>
      <trkpt lat="46.46955" lon="-1.49348">
        <ele>45</ele>
        <time>2010-01-01T01:09:42Z</time>
      </trkpt>
      <trkpt lat="46.46944" lon="-1.49334">
        <ele>45</ele>
        <time>2010-01-01T01:09:36Z</time>
      </trkpt>
      <trkpt lat="46.46934" lon="-1.4932">
        <ele>43</ele>
        <time>2010-01-01T01:09:31Z</time>
      </trkpt>
      <trkpt lat="46.46922" lon="-1.49307">
        <ele>43</ele>
        <time>2010-01-01T01:09:25Z</time>
      </trkpt>
      <trkpt lat="46.46917" lon="-1.49289">
        <ele>43</ele>
        <time>2010-01-01T01:09:19Z</time>
      </trkpt>
      <trkpt lat="46.4692" lon="-1.4928">
        <ele>43</ele>
        <time>2010-01-01T01:09:16Z</time>
      </trkpt>
      <trkpt lat="46.4693" lon="-1.49265">
        <ele>42</ele>
        <time>2010-01-01T01:09:11Z</time>
      </trkpt>
      <trkpt lat="46.46946" lon="-1.49244">
        <ele>41</ele>
        <time>2010-01-01T01:09:02Z</time>
      </trkpt>
      <trkpt lat="46.46957" lon="-1.49222">
        <ele>42</ele>
        <time>2010-01-01T01:08:55Z</time>
      </trkpt>
      <trkpt lat="46.4695" lon="-1.49206">
        <ele>41</ele>
        <time>2010-01-01T01:08:49Z</time>
      </trkpt>
      <trkpt lat="46.46935" lon="-1.49192">
        <ele>41</ele>
        <time>2010-01-01T01:08:42Z</time>
      </trkpt>
      <trkpt lat="46.46929" lon="-1.49169">
        <ele>41</ele>
        <time>2010-01-01T01:08:35Z</time>
      </trkpt>
      <trkpt lat="46.4693" lon="-1.49151">
        <ele>40</ele>
        <time>2010-01-01T01:08:30Z</time>
      </trkpt>
      <trkpt lat="46.46935" lon="-1.49131">
        <ele>41</ele>
        <time>2010-01-01T01:08:24Z</time>
      </trkpt>
      <trkpt lat="46.46932" lon="-1.49107">
        <ele>40</ele>
        <time>2010-01-01T01:08:18Z</time>
      </trkpt>
      <trkpt lat="46.46926" lon="-1.49088">
        <ele>40</ele>
        <time>2010-01-01T01:08:12Z</time>
      </trkpt>
      <trkpt lat="46.46923" lon="-1.49068">
        <ele>40</ele>
        <time>2010-01-01T01:08:06Z</time>
      </trkpt>
      <trkpt lat="46.46918" lon="-1.49048">
        <ele>40</ele>
        <time>2010-01-01T01:08:00Z</time>
      </trkpt>
      <trkpt lat="46.46912" lon="-1.49029">
        <ele>39</ele>
        <time>2010-01-01T01:07:55Z</time>
      </trkpt>
      <trkpt lat="46.46906" lon="-1.49008">
        <ele>39</ele>
        <time>2010-01-01T01:07:48Z</time>
      </trkpt>
      <trkpt lat="46.46901" lon="-1.48988">
        <ele>39</ele>
        <time>2010-01-01T01:07:43Z</time>
      </trkpt>
      <trkpt lat="46.46896" lon="-1.48969">
        <ele>39</ele>
        <time>2010-01-01T01:07:37Z</time>
      </trkpt>
      <trkpt lat="46.46893" lon="-1.4895">
        <ele>38</ele>
        <time>2010-01-01T01:07:31Z</time>
      </trkpt>
      <trkpt lat="46.46888" lon="-1.4893">
        <ele>38</ele>
        <time>2010-01-01T01:07:26Z</time>
      </trkpt>
      <trkpt lat="46.46884" lon="-1.48909">
        <ele>38</ele>
        <time>2010-01-01T01:07:20Z</time>
      </trkpt>
      <trkpt lat="46.46884" lon="-1.48885">
        <ele>37</ele>
        <time>2010-01-01T01:07:13Z</time>
      </trkpt>
      <trkpt lat="46.46882" lon="-1.48855">
        <ele>37</ele>
        <time>2010-01-01T01:07:05Z</time>
      </trkpt>
      <trkpt lat="46.46881" lon="-1.48835">
        <ele>37</ele>
        <time>2010-01-01T01:06:59Z</time>
      </trkpt>
      <trkpt lat="46.4688" lon="-1.48815">
        <ele>36</ele>
        <time>2010-01-01T01:06:54Z</time>
      </trkpt>
      <trkpt lat="46.46877" lon="-1.48795">
        <ele>36</ele>
        <time>2010-01-01T01:06:48Z</time>
      </trkpt>
      <trkpt lat="46.46873" lon="-1.48776">
        <ele>36</ele>
        <time>2010-01-01T01:06:42Z</time>
      </trkpt>
      <trkpt lat="46.46868" lon="-1.48756">
        <ele>35</ele>
        <time>2010-01-01T01:06:37Z</time>
      </trkpt>
      <trkpt lat="46.46867" lon="-1.48731">
        <ele>34</ele>
        <time>2010-01-01T01:06:30Z</time>
      </trkpt>
      <trkpt lat="46.46859" lon="-1.48707">
        <ele>34</ele>
        <time>2010-01-01T01:06:23Z</time>
      </trkpt>
      <trkpt lat="46.4685" lon="-1.48692">
        <ele>33</ele>
        <time>2010-01-01T01:06:17Z</time>
      </trkpt>
      <trkpt lat="46.4684" lon="-1.48674">
        <ele>33</ele>
        <time>2010-01-01T01:06:10Z</time>
      </trkpt>
      <trkpt lat="46.4683" lon="-1.48658">
        <ele>32</ele>
        <time>2010-01-01T01:06:05Z</time>
      </trkpt>
      <trkpt lat="46.46814" lon="-1.48641">
        <ele>33</ele>
        <time>2010-01-01T01:05:57Z</time>
      </trkpt>
      <trkpt lat="46.46798" lon="-1.48639">
        <ele>33</ele>
        <time>2010-01-01T01:05:50Z</time>
      </trkpt>
      <trkpt lat="46.46781" lon="-1.48635">
        <ele>33</ele>
        <time>2010-01-01T01:05:43Z</time>
      </trkpt>
      <trkpt lat="46.46768" lon="-1.48628">
        <ele>33</ele>
        <time>2010-01-01T01:05:38Z</time>
      </trkpt>
      <trkpt lat="46.46747" lon="-1.48618">
        <ele>34</ele>
        <time>2010-01-01T01:05:29Z</time>
      </trkpt>
      <trkpt lat="46.46735" lon="-1.48608">
        <ele>34</ele>
        <time>2010-01-01T01:05:23Z</time>
      </trkpt>
      <trkpt lat="46.4672" lon="-1.48594">
        <ele>34</ele>
        <time>2010-01-01T01:05:16Z</time>
      </trkpt>
      <trkpt lat="46.46711" lon="-1.48577">
        <ele>35</ele>
        <time>2010-01-01T01:05:10Z</time>
      </trkpt>
      <trkpt lat="46.46706" lon="-1.48557">
        <ele>36</ele>
        <time>2010-01-01T01:05:05Z</time>
      </trkpt>
      <trkpt lat="46.46698" lon="-1.48541">
        <ele>36</ele>
        <time>2010-01-01T01:04:59Z</time>
      </trkpt>
      <trkpt lat="46.46691" lon="-1.48524">
        <ele>36</ele>
        <time>2010-01-01T01:04:54Z</time>
      </trkpt>
      <trkpt lat="46.46684" lon="-1.48505">
        <ele>36</ele>
        <time>2010-01-01T01:04:48Z</time>
      </trkpt>
      <trkpt lat="46.46679" lon="-1.48486">
        <ele>38</ele>
        <time>2010-01-01T01:04:42Z</time>
      </trkpt>
      <trkpt lat="46.46673" lon="-1.48467">
        <ele>38</ele>
        <time>2010-01-01T01:04:36Z</time>
      </trkpt>
      <trkpt lat="46.46665" lon="-1.4845">
        <ele>39</ele>
        <time>2010-01-01T01:04:31Z</time>
      </trkpt>
      <trkpt lat="46.46657" lon="-1.48432">
        <ele>39</ele>
        <time>2010-01-01T01:04:25Z</time>
      </trkpt>
      <trkpt lat="46.46646" lon="-1.48409">
        <ele>40</ele>
        <time>2010-01-01T01:04:17Z</time>
      </trkpt>
      <trkpt lat="46.46642" lon="-1.48389">
        <ele>41</ele>
        <time>2010-01-01T01:04:11Z</time>
      </trkpt>
      <trkpt lat="46.46633" lon="-1.48361">
        <ele>41</ele>
        <time>2010-01-01T01:04:03Z</time>
      </trkpt>
      <trkpt lat="46.46626" lon="-1.48341">
        <ele>41</ele>
        <time>2010-01-01T01:03:56Z</time>
      </trkpt>
      <trkpt lat="46.46623" lon="-1.48321">
        <ele>42</ele>
        <time>2010-01-01T01:03:51Z</time>
      </trkpt>
      <trkpt lat="46.46618" lon="-1.48301">
        <ele>42</ele>
        <time>2010-01-01T01:03:45Z</time>
      </trkpt>
      <trkpt lat="46.4661" lon="-1.48284">
        <ele>42</ele>
        <time>2010-01-01T01:03:39Z</time>
      </trkpt>
      <trkpt lat="46.466" lon="-1.48267">
        <ele>42</ele>
        <time>2010-01-01T01:03:33Z</time>
      </trkpt>
      <trkpt lat="46.46592" lon="-1.48252">
        <ele>42</ele>
        <time>2010-01-01T01:03:28Z</time>
      </trkpt>
      <trkpt lat="46.46588" lon="-1.48233">
        <ele>43</ele>
        <time>2010-01-01T01:03:22Z</time>
      </trkpt>
      <trkpt lat="46.46584" lon="-1.48209">
        <ele>43</ele>
        <time>2010-01-01T01:03:16Z</time>
      </trkpt>
      <trkpt lat="46.46579" lon="-1.4819">
        <ele>42</ele>
        <time>2010-01-01T01:03:10Z</time>
      </trkpt>
      <trkpt lat="46.46572" lon="-1.4817">
        <ele>43</ele>
        <time>2010-01-01T01:03:04Z</time>
      </trkpt>
      <trkpt lat="46.46564" lon="-1.48152">
        <ele>43</ele>
        <time>2010-01-01T01:02:58Z</time>
      </trkpt>
      <trkpt lat="46.46555" lon="-1.48132">
        <ele>43</ele>
        <time>2010-01-01T01:02:52Z</time>
      </trkpt>
      <trkpt lat="46.46545" lon="-1.48116">
        <ele>43</ele>
        <time>2010-01-01T01:02:45Z</time>
      </trkpt>
      <trkpt lat="46.46534" lon="-1.48089">
        <ele>43</ele>
        <time>2010-01-01T01:02:37Z</time>
      </trkpt>
      <trkpt lat="46.46528" lon="-1.48068">
        <ele>43</ele>
        <time>2010-01-01T01:02:31Z</time>
      </trkpt>
      <trkpt lat="46.46521" lon="-1.4805">
        <ele>43</ele>
        <time>2010-01-01T01:02:25Z</time>
      </trkpt>
      <trkpt lat="46.46514" lon="-1.48031">
        <ele>43</ele>
        <time>2010-01-01T01:02:19Z</time>
      </trkpt>
      <trkpt lat="46.46507" lon="-1.48012">
        <ele>42</ele>
        <time>2010-01-01T01:02:13Z</time>
      </trkpt>
      <trkpt lat="46.46497" lon="-1.47987">
        <ele>41</ele>
        <time>2010-01-01T01:02:05Z</time>
      </trkpt>
      <trkpt lat="46.46486" lon="-1.47964">
        <ele>41</ele>
        <time>2010-01-01T01:01:57Z</time>
      </trkpt>
      <trkpt lat="46.46479" lon="-1.47947">
        <ele>41</ele>
        <time>2010-01-01T01:01:52Z</time>
      </trkpt>
      <trkpt lat="46.46472" lon="-1.47929">
        <ele>41</ele>
        <time>2010-01-01T01:01:46Z</time>
      </trkpt>
      <trkpt lat="46.46467" lon="-1.47908">
        <ele>40</ele>
        <time>2010-01-01T01:01:40Z</time>
      </trkpt>
      <trkpt lat="46.46465" lon="-1.47886">
        <ele>40</ele>
        <time>2010-01-01T01:01:34Z</time>
      </trkpt>
      <trkpt lat="46.46457" lon="-1.47869">
        <ele>40</ele>
        <time>2010-01-01T01:01:28Z</time>
      </trkpt>
      <trkpt lat="46.46446" lon="-1.47856">
        <ele>39</ele>
        <time>2010-01-01T01:01:22Z</time>
      </trkpt>
      <trkpt lat="46.4643" lon="-1.47824">
        <ele>38</ele>
        <time>2010-01-01T01:01:12Z</time>
      </trkpt>
      <trkpt lat="46.46424" lon="-1.47798">
        <ele>38</ele>
        <time>2010-01-01T01:01:04Z</time>
      </trkpt>
      <trkpt lat="46.46397" lon="-1.47689">
        <ele>34</ele>
        <time>2010-01-01T01:00:32Z</time>
      </trkpt>
      <trkpt lat="46.46364" lon="-1.4758">
        <ele>33</ele>
        <time>2010-01-01T00:59:59Z</time>
      </trkpt>
      <trkpt lat="46.46327" lon="-1.47543">
        <ele>32</ele>
        <time>2010-01-01T00:59:41Z</time>
      </trkpt>
      <trkpt lat="46.46302" lon="-1.4752">
        <ele>31</ele>
        <time>2010-01-01T00:59:30Z</time>
      </trkpt>
      <trkpt lat="46.4625" lon="-1.47503">
        <ele>31</ele>
        <time>2010-01-01T00:59:08Z</time>
      </trkpt>
      <trkpt lat="46.46196" lon="-1.47466">
        <ele>29</ele>
        <time>2010-01-01T00:58:44Z</time>
      </trkpt>
      <trkpt lat="46.46146" lon="-1.47409">
        <ele>28</ele>
        <time>2010-01-01T00:58:19Z</time>
      </trkpt>
      <trkpt lat="46.46101" lon="-1.47377">
        <ele>29</ele>
        <time>2010-01-01T00:57:59Z</time>
      </trkpt>
      <trkpt lat="46.46009" lon="-1.4723">
        <ele>32</ele>
        <time>2010-01-01T00:57:04Z</time>
      </trkpt>
      <trkpt lat="46.45956" lon="-1.47153">
        <ele>35</ele>
        <time>2010-01-01T00:56:34Z</time>
      </trkpt>
      <trkpt lat="46.4594" lon="-1.47141">
        <ele>35</ele>
        <time>2010-01-01T00:56:27Z</time>
      </trkpt>
      <trkpt lat="46.45882" lon="-1.47166">
        <ele>34</ele>
        <time>2010-01-01T00:56:02Z</time>
      </trkpt>
      <trkpt lat="46.45779" lon="-1.47257">
        <ele>31</ele>
        <time>2010-01-01T00:55:14Z</time>
      </trkpt>
      <trkpt lat="46.4577" lon="-1.47388">
        <ele>30</ele>
        <time>2010-01-01T00:54:38Z</time>
      </trkpt>
      <trkpt lat="46.45743" lon="-1.47504">
        <ele>28</ele>
        <time>2010-01-01T00:54:04Z</time>
      </trkpt>
      <trkpt lat="46.45716" lon="-1.47662">
        <ele>27</ele>
        <time>2010-01-01T00:53:19Z</time>
      </trkpt>
      <trkpt lat="46.45693" lon="-1.47769">
        <ele>26</ele>
        <time>2010-01-01T00:52:48Z</time>
      </trkpt>
      <trkpt lat="46.45668" lon="-1.47898">
        <ele>23</ele>
        <time>2010-01-01T00:52:12Z</time>
      </trkpt>
      <trkpt lat="46.45667" lon="-1.48023">
        <ele>21</ele>
        <time>2010-01-01T00:51:37Z</time>
      </trkpt>
      <trkpt lat="46.45646" lon="-1.48169">
        <ele>20</ele>
        <time>2010-01-01T00:50:56Z</time>
      </trkpt>
      <trkpt lat="46.45582" lon="-1.484">
        <ele>18</ele>
        <time>2010-01-01T00:49:47Z</time>
      </trkpt>
      <trkpt lat="46.45582" lon="-1.48414">
        <ele>19</ele>
        <time>2010-01-01T00:49:47Z</time>
      </trkpt>
      <trkpt lat="46.45604" lon="-1.48435">
        <ele>19</ele>
        <time>2010-01-01T00:49:37Z</time>
      </trkpt>
      <trkpt lat="46.45602" lon="-1.48459">
        <ele>18</ele>
        <time>2010-01-01T00:49:30Z</time>
      </trkpt>
      <trkpt lat="46.45599" lon="-1.48479">
        <ele>18</ele>
        <time>2010-01-01T00:49:25Z</time>
      </trkpt>
      <trkpt lat="46.45595" lon="-1.48502">
        <ele>17</ele>
        <time>2010-01-01T00:49:18Z</time>
      </trkpt>
      <trkpt lat="46.45593" lon="-1.48524">
        <ele>17</ele>
        <time>2010-01-01T00:49:12Z</time>
      </trkpt>
      <trkpt lat="46.45591" lon="-1.48552">
        <ele>16</ele>
        <time>2010-01-01T00:49:04Z</time>
      </trkpt>
      <trkpt lat="46.45587" lon="-1.48575">
        <ele>16</ele>
        <time>2010-01-01T00:48:57Z</time>
      </trkpt>
      <trkpt lat="46.45583" lon="-1.48595">
        <ele>16</ele>
        <time>2010-01-01T00:48:52Z</time>
      </trkpt>
      <trkpt lat="46.45579" lon="-1.48615">
        <ele>16</ele>
        <time>2010-01-01T00:48:46Z</time>
      </trkpt>
      <trkpt lat="46.45575" lon="-1.48638">
        <ele>16</ele>
        <time>2010-01-01T00:48:39Z</time>
      </trkpt>
      <trkpt lat="46.45573" lon="-1.48672">
        <ele>15</ele>
        <time>2010-01-01T00:48:30Z</time>
      </trkpt>
      <trkpt lat="46.4557" lon="-1.48696">
        <ele>15</ele>
        <time>2010-01-01T00:48:23Z</time>
      </trkpt>
      <trkpt lat="46.45569" lon="-1.48718">
        <ele>15</ele>
        <time>2010-01-01T00:48:17Z</time>
      </trkpt>
      <trkpt lat="46.45562" lon="-1.48736">
        <ele>15</ele>
        <time>2010-01-01T00:48:12Z</time>
      </trkpt>
      <trkpt lat="46.45557" lon="-1.4877">
        <ele>15</ele>
        <time>2010-01-01T00:48:02Z</time>
      </trkpt>
      <trkpt lat="46.45554" lon="-1.48798">
        <ele>14</ele>
        <time>2010-01-01T00:47:54Z</time>
      </trkpt>
      <trkpt lat="46.45554" lon="-1.48819">
        <ele>14</ele>
        <time>2010-01-01T00:47:49Z</time>
      </trkpt>
      <trkpt lat="46.45554" lon="-1.48846">
        <ele>14</ele>
        <time>2010-01-01T00:47:41Z</time>
      </trkpt>
      <trkpt lat="46.45554" lon="-1.48869">
        <ele>14</ele>
        <time>2010-01-01T00:47:35Z</time>
      </trkpt>
      <trkpt lat="46.45556" lon="-1.48889">
        <ele>13</ele>
        <time>2010-01-01T00:47:29Z</time>
      </trkpt>
      <trkpt lat="46.45557" lon="-1.4891">
        <ele>13</ele>
        <time>2010-01-01T00:47:23Z</time>
      </trkpt>
      <trkpt lat="46.4556" lon="-1.48948">
        <ele>14</ele>
        <time>2010-01-01T00:47:13Z</time>
      </trkpt>
      <trkpt lat="46.45562" lon="-1.48972">
        <ele>14</ele>
        <time>2010-01-01T00:47:06Z</time>
      </trkpt>
      <trkpt lat="46.45564" lon="-1.48991">
        <ele>14</ele>
        <time>2010-01-01T00:47:01Z</time>
      </trkpt>
      <trkpt lat="46.45569" lon="-1.4901">
        <ele>15</ele>
        <time>2010-01-01T00:46:55Z</time>
      </trkpt>
      <trkpt lat="46.45572" lon="-1.49031">
        <ele>15</ele>
        <time>2010-01-01T00:46:49Z</time>
      </trkpt>
      <trkpt lat="46.45574" lon="-1.49057">
        <ele>15</ele>
        <time>2010-01-01T00:46:42Z</time>
      </trkpt>
      <trkpt lat="46.45574" lon="-1.49077">
        <ele>15</ele>
        <time>2010-01-01T00:46:37Z</time>
      </trkpt>
      <trkpt lat="46.45573" lon="-1.49103">
        <ele>16</ele>
        <time>2010-01-01T00:46:29Z</time>
      </trkpt>
      <trkpt lat="46.45575" lon="-1.49128">
        <ele>16</ele>
        <time>2010-01-01T00:46:22Z</time>
      </trkpt>
      <trkpt lat="46.45575" lon="-1.49154">
        <ele>16</ele>
        <time>2010-01-01T00:46:15Z</time>
      </trkpt>
      <trkpt lat="46.45577" lon="-1.49179">
        <ele>17</ele>
        <time>2010-01-01T00:46:08Z</time>
      </trkpt>
      <trkpt lat="46.45578" lon="-1.49203">
        <ele>16</ele>
        <time>2010-01-01T00:46:02Z</time>
      </trkpt>
      <trkpt lat="46.45581" lon="-1.49226">
        <ele>17</ele>
        <time>2010-01-01T00:45:55Z</time>
      </trkpt>
      <trkpt lat="46.45583" lon="-1.49248">
        <ele>19</ele>
        <time>2010-01-01T00:45:49Z</time>
      </trkpt>
      <trkpt lat="46.45583" lon="-1.49269">
        <ele>18</ele>
        <time>2010-01-01T00:45:43Z</time>
      </trkpt>
      <trkpt lat="46.45583" lon="-1.49292">
        <ele>17</ele>
        <time>2010-01-01T00:45:37Z</time>
      </trkpt>
      <trkpt lat="46.45584" lon="-1.49313">
        <ele>20</ele>
        <time>2010-01-01T00:45:31Z</time>
      </trkpt>
      <trkpt lat="46.45585" lon="-1.49334">
        <ele>19</ele>
        <time>2010-01-01T00:45:25Z</time>
      </trkpt>
      <trkpt lat="46.45586" lon="-1.49354">
        <ele>19</ele>
        <time>2010-01-01T00:45:20Z</time>
      </trkpt>
      <trkpt lat="46.45587" lon="-1.49383">
        <ele>19</ele>
        <time>2010-01-01T00:45:12Z</time>
      </trkpt>
      <trkpt lat="46.45585" lon="-1.49415">
        <ele>19</ele>
        <time>2010-01-01T00:45:03Z</time>
      </trkpt>
      <trkpt lat="46.45585" lon="-1.49435">
        <ele>18</ele>
        <time>2010-01-01T00:44:57Z</time>
      </trkpt>
      <trkpt lat="46.45588" lon="-1.49464">
        <ele>18</ele>
        <time>2010-01-01T00:44:49Z</time>
      </trkpt>
      <trkpt lat="46.45591" lon="-1.49483">
        <ele>17</ele>
        <time>2010-01-01T00:44:44Z</time>
      </trkpt>
      <trkpt lat="46.45596" lon="-1.49513">
        <ele>15</ele>
        <time>2010-01-01T00:44:36Z</time>
      </trkpt>
      <trkpt lat="46.45598" lon="-1.49539">
        <ele>15</ele>
        <time>2010-01-01T00:44:28Z</time>
      </trkpt>
      <trkpt lat="46.45601" lon="-1.49561">
        <ele>14</ele>
        <time>2010-01-01T00:44:22Z</time>
      </trkpt>
      <trkpt lat="46.45605" lon="-1.49582">
        <ele>14</ele>
        <time>2010-01-01T00:44:16Z</time>
      </trkpt>
      <trkpt lat="46.45607" lon="-1.49602">
        <ele>12</ele>
        <time>2010-01-01T00:44:11Z</time>
      </trkpt>
      <trkpt lat="46.4561" lon="-1.49622">
        <ele>12</ele>
        <time>2010-01-01T00:44:05Z</time>
      </trkpt>
      <trkpt lat="46.45613" lon="-1.49646">
        <ele>12</ele>
        <time>2010-01-01T00:43:58Z</time>
      </trkpt>
      <trkpt lat="46.45617" lon="-1.49677">
        <ele>11</ele>
        <time>2010-01-01T00:43:50Z</time>
      </trkpt>
      <trkpt lat="46.4562" lon="-1.49705">
        <ele>11</ele>
        <time>2010-01-01T00:43:42Z</time>
      </trkpt>
      <trkpt lat="46.45622" lon="-1.49733">
        <ele>11</ele>
        <time>2010-01-01T00:43:34Z</time>
      </trkpt>
      <trkpt lat="46.45623" lon="-1.49764">
        <ele>10</ele>
        <time>2010-01-01T00:43:25Z</time>
      </trkpt>
      <trkpt lat="46.45626" lon="-1.49783">
        <ele>11</ele>
        <time>2010-01-01T00:43:20Z</time>
      </trkpt>
      <trkpt lat="46.45632" lon="-1.49813">
        <ele>11</ele>
        <time>2010-01-01T00:43:11Z</time>
      </trkpt>
      <trkpt lat="46.45638" lon="-1.49834">
        <ele>11</ele>
        <time>2010-01-01T00:43:05Z</time>
      </trkpt>
      <trkpt lat="46.45646" lon="-1.49856">
        <ele>11</ele>
        <time>2010-01-01T00:42:58Z</time>
      </trkpt>
      <trkpt lat="46.45653" lon="-1.49875">
        <ele>11</ele>
        <time>2010-01-01T00:42:52Z</time>
      </trkpt>
      <trkpt lat="46.45659" lon="-1.49903">
        <ele>11</ele>
        <time>2010-01-01T00:42:44Z</time>
      </trkpt>
      <trkpt lat="46.45663" lon="-1.49927">
        <ele>12</ele>
        <time>2010-01-01T00:42:37Z</time>
      </trkpt>
      <trkpt lat="46.45664" lon="-1.49953">
        <ele>12</ele>
        <time>2010-01-01T00:42:30Z</time>
      </trkpt>
      <trkpt lat="46.45665" lon="-1.49979">
        <ele>12</ele>
        <time>2010-01-01T00:42:23Z</time>
      </trkpt>
      <trkpt lat="46.45668" lon="-1.50004">
        <ele>13</ele>
        <time>2010-01-01T00:42:16Z</time>
      </trkpt>
      <trkpt lat="46.4567" lon="-1.50024">
        <ele>14</ele>
        <time>2010-01-01T00:42:10Z</time>
      </trkpt>
      <trkpt lat="46.45674" lon="-1.50048">
        <ele>14</ele>
        <time>2010-01-01T00:42:03Z</time>
      </trkpt>
      <trkpt lat="46.45679" lon="-1.50067">
        <ele>14</ele>
        <time>2010-01-01T00:41:58Z</time>
      </trkpt>
      <trkpt lat="46.45689" lon="-1.50085">
        <ele>14</ele>
        <time>2010-01-01T00:41:51Z</time>
      </trkpt>
      <trkpt lat="46.457" lon="-1.50109">
        <ele>14</ele>
        <time>2010-01-01T00:41:44Z</time>
      </trkpt>
      <trkpt lat="46.45712" lon="-1.50123">
        <ele>14</ele>
        <time>2010-01-01T00:41:37Z</time>
      </trkpt>
      <trkpt lat="46.45721" lon="-1.50148">
        <ele>14</ele>
        <time>2010-01-01T00:41:30Z</time>
      </trkpt>
      <trkpt lat="46.45727" lon="-1.50167">
        <ele>14</ele>
        <time>2010-01-01T00:41:24Z</time>
      </trkpt>
      <trkpt lat="46.45738" lon="-1.50191">
        <ele>14</ele>
        <time>2010-01-01T00:41:16Z</time>
      </trkpt>
      <trkpt lat="46.45751" lon="-1.50215">
        <ele>16</ele>
        <time>2010-01-01T00:41:08Z</time>
      </trkpt>
      <trkpt lat="46.45757" lon="-1.50236">
        <ele>16</ele>
        <time>2010-01-01T00:41:01Z</time>
      </trkpt>
      <trkpt lat="46.45761" lon="-1.50257">
        <ele>16</ele>
        <time>2010-01-01T00:40:55Z</time>
      </trkpt>
      <trkpt lat="46.4577" lon="-1.50276">
        <ele>16</ele>
        <time>2010-01-01T00:40:49Z</time>
      </trkpt>
      <trkpt lat="46.45781" lon="-1.5029">
        <ele>17</ele>
        <time>2010-01-01T00:40:43Z</time>
      </trkpt>
      <trkpt lat="46.45796" lon="-1.50307">
        <ele>17</ele>
        <time>2010-01-01T00:40:36Z</time>
      </trkpt>
      <trkpt lat="46.45807" lon="-1.50319">
        <ele>17</ele>
        <time>2010-01-01T00:40:30Z</time>
      </trkpt>
      <trkpt lat="46.45821" lon="-1.50334">
        <ele>18</ele>
        <time>2010-01-01T00:40:23Z</time>
      </trkpt>
      <trkpt lat="46.4584" lon="-1.50355">
        <ele>18</ele>
        <time>2010-01-01T00:40:14Z</time>
      </trkpt>
      <trkpt lat="46.45854" lon="-1.50373">
        <ele>19</ele>
        <time>2010-01-01T00:40:06Z</time>
      </trkpt>
      <trkpt lat="46.45867" lon="-1.50388">
        <ele>19</ele>
        <time>2010-01-01T00:39:59Z</time>
      </trkpt>
      <trkpt lat="46.45878" lon="-1.50401">
        <ele>19</ele>
        <time>2010-01-01T00:39:54Z</time>
      </trkpt>
      <trkpt lat="46.45889" lon="-1.50413">
        <ele>19</ele>
        <time>2010-01-01T00:39:48Z</time>
      </trkpt>
      <trkpt lat="46.45899" lon="-1.50426">
        <ele>19</ele>
        <time>2010-01-01T00:39:43Z</time>
      </trkpt>
      <trkpt lat="46.45912" lon="-1.50447">
        <ele>19</ele>
        <time>2010-01-01T00:39:35Z</time>
      </trkpt>
      <trkpt lat="46.45922" lon="-1.50463">
        <ele>19</ele>
        <time>2010-01-01T00:39:29Z</time>
      </trkpt>
      <trkpt lat="46.45934" lon="-1.50483">
        <ele>19</ele>
        <time>2010-01-01T00:39:22Z</time>
      </trkpt>
      <trkpt lat="46.45944" lon="-1.505">
        <ele>19</ele>
        <time>2010-01-01T00:39:16Z</time>
      </trkpt>
      <trkpt lat="46.45959" lon="-1.50521">
        <ele>20</ele>
        <time>2010-01-01T00:39:07Z</time>
      </trkpt>
      <trkpt lat="46.45969" lon="-1.50541">
        <ele>20</ele>
        <time>2010-01-01T00:39:01Z</time>
      </trkpt>
      <trkpt lat="46.45983" lon="-1.50565">
        <ele>20</ele>
        <time>2010-01-01T00:38:52Z</time>
      </trkpt>
      <trkpt lat="46.45993" lon="-1.5058">
        <ele>21</ele>
        <time>2010-01-01T00:38:46Z</time>
      </trkpt>
      <trkpt lat="46.4601" lon="-1.50607">
        <ele>22</ele>
        <time>2010-01-01T00:38:36Z</time>
      </trkpt>
      <trkpt lat="46.46017" lon="-1.50625">
        <ele>23</ele>
        <time>2010-01-01T00:38:30Z</time>
      </trkpt>
      <trkpt lat="46.46024" lon="-1.5065">
        <ele>23</ele>
        <time>2010-01-01T00:38:23Z</time>
      </trkpt>
      <trkpt lat="46.46032" lon="-1.50668">
        <ele>23</ele>
        <time>2010-01-01T00:38:17Z</time>
      </trkpt>
      <trkpt lat="46.46044" lon="-1.5069">
        <ele>23</ele>
        <time>2010-01-01T00:38:09Z</time>
      </trkpt>
      <trkpt lat="46.46053" lon="-1.50706">
        <ele>23</ele>
        <time>2010-01-01T00:38:03Z</time>
      </trkpt>
      <trkpt lat="46.46066" lon="-1.50732">
        <ele>24</ele>
        <time>2010-01-01T00:37:55Z</time>
      </trkpt>
      <trkpt lat="46.46075" lon="-1.5075">
        <ele>24</ele>
        <time>2010-01-01T00:37:49Z</time>
      </trkpt>
      <trkpt lat="46.46082" lon="-1.50768">
        <ele>23</ele>
        <time>2010-01-01T00:37:43Z</time>
      </trkpt>
      <trkpt lat="46.46088" lon="-1.50789">
        <ele>24</ele>
        <time>2010-01-01T00:37:37Z</time>
      </trkpt>
      <trkpt lat="46.46095" lon="-1.50807">
        <ele>24</ele>
        <time>2010-01-01T00:37:31Z</time>
      </trkpt>
      <trkpt lat="46.46106" lon="-1.50839">
        <ele>24</ele>
        <time>2010-01-01T00:37:21Z</time>
      </trkpt>
      <trkpt lat="46.46113" lon="-1.50856">
        <ele>24</ele>
        <time>2010-01-01T00:37:15Z</time>
      </trkpt>
      <trkpt lat="46.4612" lon="-1.50874">
        <ele>24</ele>
        <time>2010-01-01T00:37:10Z</time>
      </trkpt>
      <trkpt lat="46.46129" lon="-1.50895">
        <ele>24</ele>
        <time>2010-01-01T00:37:03Z</time>
      </trkpt>
      <trkpt lat="46.46139" lon="-1.50911">
        <ele>24</ele>
        <time>2010-01-01T00:36:57Z</time>
      </trkpt>
      <trkpt lat="46.4615" lon="-1.50925">
        <ele>24</ele>
        <time>2010-01-01T00:36:51Z</time>
      </trkpt>
      <trkpt lat="46.46164" lon="-1.50943">
        <ele>24</ele>
        <time>2010-01-01T00:36:44Z</time>
      </trkpt>
      <trkpt lat="46.4618" lon="-1.50962">
        <ele>25</ele>
        <time>2010-01-01T00:36:36Z</time>
      </trkpt>
      <trkpt lat="46.46188" lon="-1.50978">
        <ele>25</ele>
        <time>2010-01-01T00:36:30Z</time>
      </trkpt>
      <trkpt lat="46.46196" lon="-1.50995">
        <ele>25</ele>
        <time>2010-01-01T00:36:24Z</time>
      </trkpt>
      <trkpt lat="46.46202" lon="-1.51014">
        <ele>24</ele>
        <time>2010-01-01T00:36:18Z</time>
      </trkpt>
      <trkpt lat="46.46207" lon="-1.51033">
        <ele>24</ele>
        <time>2010-01-01T00:36:13Z</time>
      </trkpt>
      <trkpt lat="46.46211" lon="-1.51054">
        <ele>24</ele>
        <time>2010-01-01T00:36:07Z</time>
      </trkpt>
      <trkpt lat="46.46217" lon="-1.51078">
        <ele>23</ele>
        <time>2010-01-01T00:36:00Z</time>
      </trkpt>
      <trkpt lat="46.46221" lon="-1.51108">
        <ele>23</ele>
        <time>2010-01-01T00:35:51Z</time>
      </trkpt>
      <trkpt lat="46.46223" lon="-1.51129">
        <ele>24</ele>
        <time>2010-01-01T00:35:46Z</time>
      </trkpt>
      <trkpt lat="46.4623" lon="-1.51155">
        <ele>24</ele>
        <time>2010-01-01T00:35:38Z</time>
      </trkpt>
      <trkpt lat="46.46234" lon="-1.51177">
        <ele>25</ele>
        <time>2010-01-01T00:35:32Z</time>
      </trkpt>
      <trkpt lat="46.46241" lon="-1.51196">
        <ele>25</ele>
        <time>2010-01-01T00:35:26Z</time>
      </trkpt>
      <trkpt lat="46.46249" lon="-1.51213">
        <ele>25</ele>
        <time>2010-01-01T00:35:20Z</time>
      </trkpt>
      <trkpt lat="46.46258" lon="-1.5123">
        <ele>27</ele>
        <time>2010-01-01T00:35:14Z</time>
      </trkpt>
      <trkpt lat="46.46268" lon="-1.51248">
        <ele>27</ele>
        <time>2010-01-01T00:35:08Z</time>
      </trkpt>
      <trkpt lat="46.46277" lon="-1.51264">
        <ele>27</ele>
        <time>2010-01-01T00:35:02Z</time>
      </trkpt>
      <trkpt lat="46.46287" lon="-1.51283">
        <ele>27</ele>
        <time>2010-01-01T00:34:56Z</time>
      </trkpt>
      <trkpt lat="46.46297" lon="-1.51307">
        <ele>27</ele>
        <time>2010-01-01T00:34:48Z</time>
      </trkpt>
      <trkpt lat="46.46305" lon="-1.51327">
        <ele>28</ele>
        <time>2010-01-01T00:34:41Z</time>
      </trkpt>
      <trkpt lat="46.46314" lon="-1.51349">
        <ele>27</ele>
        <time>2010-01-01T00:34:34Z</time>
      </trkpt>
      <trkpt lat="46.46331" lon="-1.51388">
        <ele>27</ele>
        <time>2010-01-01T00:34:22Z</time>
      </trkpt>
      <trkpt lat="46.46334" lon="-1.51434">
        <ele>-1</ele>
        <time>2010-01-01T00:34:09Z</time>
      </trkpt>
      <trkpt lat="46.46331" lon="-1.51479">
        <ele>-1</ele>
        <time>2010-01-01T00:33:56Z</time>
      </trkpt>
      <trkpt lat="46.46381" lon="-1.51627">
        <ele>-1</ele>
        <time>2010-01-01T00:33:11Z</time>
      </trkpt>
      <trkpt lat="46.46396" lon="-1.51711">
        <ele>-1</ele>
        <time>2010-01-01T00:32:47Z</time>
      </trkpt>
      <trkpt lat="46.46414" lon="-1.51841">
        <ele>-1</ele>
        <time>2010-01-01T00:32:11Z</time>
      </trkpt>
      <trkpt lat="46.46427" lon="-1.51908">
        <ele>-1</ele>
        <time>2010-01-01T00:31:51Z</time>
      </trkpt>
      <trkpt lat="46.46466" lon="-1.52025">
        <ele>-1</ele>
        <time>2010-01-01T00:31:15Z</time>
      </trkpt>
      <trkpt lat="46.46516" lon="-1.52134">
        <ele>-1</ele>
        <time>2010-01-01T00:30:39Z</time>
      </trkpt>
      <trkpt lat="46.46547" lon="-1.52232">
        <ele>-1</ele>
        <time>2010-01-01T00:30:10Z</time>
      </trkpt>
      <trkpt lat="46.46454" lon="-1.52273">
        <ele>-1</ele>
        <time>2010-01-01T00:29:31Z</time>
      </trkpt>
      <trkpt lat="46.46408" lon="-1.52275">
        <ele>-1</ele>
        <time>2010-01-01T00:29:12Z</time>
      </trkpt>
      <trkpt lat="46.46363" lon="-1.52255">
        <ele>-1</ele>
        <time>2010-01-01T00:28:53Z</time>
      </trkpt>
      <trkpt lat="46.46298" lon="-1.52303">
        <ele>-1</ele>
        <time>2010-01-01T00:28:24Z</time>
      </trkpt>
      <trkpt lat="46.46224" lon="-1.5234">
        <ele>-1</ele>
        <time>2010-01-01T00:27:53Z</time>
      </trkpt>
      <trkpt lat="46.46208" lon="-1.52336">
        <ele>-1</ele>
        <time>2010-01-01T00:27:46Z</time>
      </trkpt>
      <trkpt lat="46.4616" lon="-1.52374">
        <ele>-1</ele>
        <time>2010-01-01T00:27:24Z</time>
      </trkpt>
      <trkpt lat="46.46193" lon="-1.52824">
        <ele>-1</ele>
        <time>2010-01-01T00:25:20Z</time>
      </trkpt>
      <trkpt lat="46.46185" lon="-1.52886">
        <ele>-1</ele>
        <time>2010-01-01T00:25:02Z</time>
      </trkpt>
      <trkpt lat="46.46148" lon="-1.52954">
        <ele>-1</ele>
        <time>2010-01-01T00:24:38Z</time>
      </trkpt>
      <trkpt lat="46.46102" lon="-1.5302">
        <ele>-1</ele>
        <time>2010-01-01T00:24:12Z</time>
      </trkpt>
      <trkpt lat="46.46143" lon="-1.5302">
        <ele>-1</ele>
        <time>2010-01-01T00:23:56Z</time>
      </trkpt>
      <trkpt lat="46.46183" lon="-1.53028">
        <ele>-1</ele>
        <time>2010-01-01T00:23:40Z</time>
      </trkpt>
      <trkpt lat="46.46253" lon="-1.53054">
        <ele>-1</ele>
        <time>2010-01-01T00:23:11Z</time>
      </trkpt>
      <trkpt lat="46.4642" lon="-1.52747">
        <ele>-1</ele>
        <time>2010-01-01T00:21:23Z</time>
      </trkpt>
      <trkpt lat="46.46431" lon="-1.52688">
        <ele>-1</ele>
        <time>2010-01-01T00:21:06Z</time>
      </trkpt>
      <trkpt lat="46.46446" lon="-1.52522">
        <ele>-1</ele>
        <time>2010-01-01T00:20:20Z</time>
      </trkpt>
      <trkpt lat="46.46463" lon="-1.52475">
        <ele>-1</ele>
        <time>2010-01-01T00:20:05Z</time>
      </trkpt>
      <trkpt lat="46.46485" lon="-1.52445">
        <ele>-1</ele>
        <time>2010-01-01T00:19:53Z</time>
      </trkpt>
      <trkpt lat="46.46532" lon="-1.52393">
        <ele>-1</ele>
        <time>2010-01-01T00:19:30Z</time>
      </trkpt>
      <trkpt lat="46.46603" lon="-1.52336">
        <ele>-1</ele>
        <time>2010-01-01T00:18:57Z</time>
      </trkpt>
      <trkpt lat="46.46641" lon="-1.52328">
        <ele>-1</ele>
        <time>2010-01-01T00:18:42Z</time>
      </trkpt>
      <trkpt lat="46.46685" lon="-1.52294">
        <ele>-1</ele>
        <time>2010-01-01T00:18:22Z</time>
      </trkpt>
      <trkpt lat="46.46731" lon="-1.5225">
        <ele>21</ele>
        <time>2010-01-01T00:18:00Z</time>
      </trkpt>
      <trkpt lat="46.46774" lon="-1.52234">
        <ele>21</ele>
        <time>2010-01-01T00:17:42Z</time>
      </trkpt>
      <trkpt lat="46.46834" lon="-1.522">
        <ele>22</ele>
        <time>2010-01-01T00:17:16Z</time>
      </trkpt>
      <trkpt lat="46.46903" lon="-1.52138">
        <ele>23</ele>
        <time>2010-01-01T00:16:44Z</time>
      </trkpt>
      <trkpt lat="46.46973" lon="-1.52076">
        <ele>24</ele>
        <time>2010-01-01T00:16:11Z</time>
      </trkpt>
      <trkpt lat="46.47009" lon="-1.52074">
        <ele>24</ele>
        <time>2010-01-01T00:15:56Z</time>
      </trkpt>
      <trkpt lat="46.47101" lon="-1.52056">
        <ele>27</ele>
        <time>2010-01-01T00:15:19Z</time>
      </trkpt>
      <trkpt lat="46.46968" lon="-1.51562">
        <ele>30</ele>
        <time>2010-01-01T00:12:53Z</time>
      </trkpt>
      <trkpt lat="46.46983" lon="-1.51496">
        <ele>31</ele>
        <time>2010-01-01T00:12:34Z</time>
      </trkpt>
      <trkpt lat="46.46971" lon="-1.51383">
        <ele>34</ele>
        <time>2010-01-01T00:12:02Z</time>
      </trkpt>
      <trkpt lat="46.46936" lon="-1.51224">
        <ele>35</ele>
        <time>2010-01-01T00:11:16Z</time>
      </trkpt>
      <trkpt lat="46.46852" lon="-1.50866">
        <ele>36</ele>
        <time>2010-01-01T00:09:32Z</time>
      </trkpt>
      <trkpt lat="46.46803" lon="-1.50676">
        <ele>37</ele>
        <time>2010-01-01T00:08:36Z</time>
      </trkpt>
      <trkpt lat="46.46776" lon="-1.50498">
        <ele>43</ele>
        <time>2010-01-01T00:07:46Z</time>
      </trkpt>
      <trkpt lat="46.46764" lon="-1.50413">
        <ele>44</ele>
        <time>2010-01-01T00:07:22Z</time>
      </trkpt>
      <trkpt lat="46.46781" lon="-1.50384">
        <ele>45</ele>
        <time>2010-01-01T00:07:12Z</time>
      </trkpt>
      <trkpt lat="46.4679" lon="-1.50367">
        <ele>45</ele>
        <time>2010-01-01T00:07:05Z</time>
      </trkpt>
      <trkpt lat="46.46801" lon="-1.50345">
        <ele>45</ele>
        <time>2010-01-01T00:06:58Z</time>
      </trkpt>
      <trkpt lat="46.46807" lon="-1.50325">
        <ele>45</ele>
        <time>2010-01-01T00:06:52Z</time>
      </trkpt>
      <trkpt lat="46.46816" lon="-1.50306">
        <ele>45</ele>
        <time>2010-01-01T00:06:46Z</time>
      </trkpt>
      <trkpt lat="46.46825" lon="-1.50281">
        <ele>45</ele>
        <time>2010-01-01T00:06:38Z</time>
      </trkpt>
      <trkpt lat="46.46831" lon="-1.50261">
        <ele>45</ele>
        <time>2010-01-01T00:06:32Z</time>
      </trkpt>
      <trkpt lat="46.46838" lon="-1.50242">
        <ele>46</ele>
        <time>2010-01-01T00:06:26Z</time>
      </trkpt>
      <trkpt lat="46.46847" lon="-1.50221">
        <ele>46</ele>
        <time>2010-01-01T00:06:19Z</time>
      </trkpt>
      <trkpt lat="46.46853" lon="-1.50197">
        <ele>46</ele>
        <time>2010-01-01T00:06:12Z</time>
      </trkpt>
      <trkpt lat="46.46856" lon="-1.50177">
        <ele>46</ele>
        <time>2010-01-01T00:06:07Z</time>
      </trkpt>
      <trkpt lat="46.46856" lon="-1.50155">
        <ele>46</ele>
        <time>2010-01-01T00:06:01Z</time>
      </trkpt>
      <trkpt lat="46.46854" lon="-1.50131">
        <ele>47</ele>
        <time>2010-01-01T00:05:54Z</time>
      </trkpt>
      <trkpt lat="46.46852" lon="-1.50111">
        <ele>47</ele>
        <time>2010-01-01T00:05:48Z</time>
      </trkpt>
      <trkpt lat="46.46854" lon="-1.50091">
        <ele>46</ele>
        <time>2010-01-01T00:05:43Z</time>
      </trkpt>
      <trkpt lat="46.46861" lon="-1.50073">
        <ele>47</ele>
        <time>2010-01-01T00:05:37Z</time>
      </trkpt>
      <trkpt lat="46.46871" lon="-1.50058">
        <ele>47</ele>
        <time>2010-01-01T00:05:31Z</time>
      </trkpt>
      <trkpt lat="46.46884" lon="-1.50047">
        <ele>48</ele>
        <time>2010-01-01T00:05:25Z</time>
      </trkpt>
      <trkpt lat="46.46897" lon="-1.5004">
        <ele>48</ele>
        <time>2010-01-01T00:05:20Z</time>
      </trkpt>
      <trkpt lat="46.46918" lon="-1.50035">
        <ele>50</ele>
        <time>2010-01-01T00:05:11Z</time>
      </trkpt>
      <trkpt lat="46.4694" lon="-1.5003">
        <ele>50</ele>
        <time>2010-01-01T00:05:02Z</time>
      </trkpt>
      <trkpt lat="46.46956" lon="-1.50028">
        <ele>50</ele>
        <time>2010-01-01T00:04:56Z</time>
      </trkpt>
      <trkpt lat="46.46972" lon="-1.50026">
        <ele>50</ele>
        <time>2010-01-01T00:04:49Z</time>
      </trkpt>
      <trkpt lat="46.4699" lon="-1.50023">
        <ele>51</ele>
        <time>2010-01-01T00:04:42Z</time>
      </trkpt>
      <trkpt lat="46.47005" lon="-1.50019">
        <ele>51</ele>
        <time>2010-01-01T00:04:36Z</time>
      </trkpt>
      <trkpt lat="46.47013" lon="-1.49997">
        <ele>51</ele>
        <time>2010-01-01T00:04:29Z</time>
      </trkpt>
      <trkpt lat="46.47014" lon="-1.49974">
        <ele>50</ele>
        <time>2010-01-01T00:04:23Z</time>
      </trkpt>
      <trkpt lat="46.47014" lon="-1.49948">
        <ele>50</ele>
        <time>2010-01-01T00:04:16Z</time>
      </trkpt>
      <trkpt lat="46.47013" lon="-1.49921">
        <ele>49</ele>
        <time>2010-01-01T00:04:08Z</time>
      </trkpt>
      <trkpt lat="46.47011" lon="-1.49901">
        <ele>49</ele>
        <time>2010-01-01T00:04:03Z</time>
      </trkpt>
      <trkpt lat="46.4701" lon="-1.49877">
        <ele>49</ele>
        <time>2010-01-01T00:03:56Z</time>
      </trkpt>
      <trkpt lat="46.4701" lon="-1.49856">
        <ele>49</ele>
        <time>2010-01-01T00:03:50Z</time>
      </trkpt>
      <trkpt lat="46.47011" lon="-1.49834">
        <ele>49</ele>
        <time>2010-01-01T00:03:44Z</time>
      </trkpt>
      <trkpt lat="46.47015" lon="-1.49814">
        <ele>49</ele>
        <time>2010-01-01T00:03:38Z</time>
      </trkpt>
      <trkpt lat="46.47019" lon="-1.4979">
        <ele>50</ele>
        <time>2010-01-01T00:03:31Z</time>
      </trkpt>
      <trkpt lat="46.47023" lon="-1.49771">
        <ele>50</ele>
        <time>2010-01-01T00:03:26Z</time>
      </trkpt>
      <trkpt lat="46.4703" lon="-1.49745">
        <ele>50</ele>
        <time>2010-01-01T00:03:18Z</time>
      </trkpt>
      <trkpt lat="46.4704" lon="-1.49722">
        <ele>50</ele>
        <time>2010-01-01T00:03:11Z</time>
      </trkpt>
      <trkpt lat="46.47045" lon="-1.49702">
        <ele>50</ele>
        <time>2010-01-01T00:03:05Z</time>
      </trkpt>
      <trkpt lat="46.47042" lon="-1.49682">
        <ele>50</ele>
        <time>2010-01-01T00:02:59Z</time>
      </trkpt>
      <trkpt lat="46.47035" lon="-1.49657">
        <ele>50</ele>
        <time>2010-01-01T00:02:52Z</time>
      </trkpt>
      <trkpt lat="46.47026" lon="-1.49634">
        <ele>50</ele>
        <time>2010-01-01T00:02:45Z</time>
      </trkpt>
      <trkpt lat="46.47018" lon="-1.49617">
        <ele>50</ele>
        <time>2010-01-01T00:02:39Z</time>
      </trkpt>
      <trkpt lat="46.47009" lon="-1.49601">
        <ele>51</ele>
        <time>2010-01-01T00:02:33Z</time>
      </trkpt>
      <trkpt lat="46.46999" lon="-1.4958">
        <ele>52</ele>
        <time>2010-01-01T00:02:26Z</time>
      </trkpt>
      <trkpt lat="46.46986" lon="-1.49556">
        <ele>52</ele>
        <time>2010-01-01T00:02:18Z</time>
      </trkpt>
      <trkpt lat="46.4698" lon="-1.49529">
        <ele>51</ele>
        <time>2010-01-01T00:02:10Z</time>
      </trkpt>
      <trkpt lat="46.4697" lon="-1.49508">
        <ele>51</ele>
        <time>2010-01-01T00:02:03Z</time>
      </trkpt>
      <trkpt lat="46.46963" lon="-1.49507">
        <ele>51</ele>
        <time>2010-01-01T00:02:00Z</time>
      </trkpt>
      <trkpt lat="46.46962" lon="-1.49511">
        <ele>51</ele>
        <time>2010-01-01T00:01:59Z</time>
      </trkpt>
      <trkpt lat="46.46958" lon="-1.49534">
        <ele>51</ele>
        <time>2010-01-01T00:01:52Z</time>
      </trkpt>
      <trkpt lat="46.4695" lon="-1.49542">
        <ele>51</ele>
        <time>2010-01-01T00:01:48Z</time>
      </trkpt>
      <trkpt lat="46.46943" lon="-1.49542">
        <ele>51</ele>
        <time>2010-01-01T00:01:46Z</time>
      </trkpt>
      <trkpt lat="46.46934" lon="-1.4956">
        <ele>51</ele>
        <time>2010-01-01T00:01:40Z</time>
      </trkpt>
      <trkpt lat="46.46915" lon="-1.49572">
        <ele>50</ele>
        <time>2010-01-01T00:01:31Z</time>
      </trkpt>
      <trkpt lat="46.46903" lon="-1.49568">
        <ele>50</ele>
        <time>2010-01-01T00:01:26Z</time>
      </trkpt>
      <trkpt lat="46.46889" lon="-1.49558">
        <ele>49</ele>
        <time>2010-01-01T00:01:20Z</time>
      </trkpt>
      <trkpt lat="46.46875" lon="-1.49548">
        <ele>49</ele>
        <time>2010-01-01T00:01:14Z</time>
      </trkpt>
      <trkpt lat="46.46889" lon="-1.49558">
        <ele>49</ele>
        <time>2010-01-01T00:01:20Z</time>
      </trkpt>
      <trkpt lat="46.46875" lon="-1.49548">
        <ele>48.6</ele>
      </trkpt>
      <trkpt lat="46.46839" lon="-1.49581">
        <ele>48.2</ele>
      </trkpt>
    </trkseg>
  </trk>
</gpx>